Time;durP1;ratioP1;P1;durP2;ratioP2;P2;SDS_P1;SDS_P2;PMS_P1;PMS_P2;Temp;Humidity;BMP_temperature;BMP_pressure;BME280_temperature;BME280_humidity;BME280_pressure;Samples;Min_cycle;Max_cycle;Signal;HPM_P1;HPM_P2
2022/12/23 00:01:21;;;;;;;16.40;10.60;;;6.10;99.90;;;;;;5057671;28;20304;-89
2022/12/23 00:03:47;;;;;;;16.90;10.07;;;6.10;99.90;;;;;;5057951;28;20604;-90
2022/12/23 00:06:15;;;;;;;17.40;10.07;;;6.10;99.90;;;;;;5060272;28;20185;-88
2022/12/23 00:08:41;;;;;;;17.67;9.93;;;6.10;99.90;;;;;;5077858;28;20166;-91
2022/12/23 00:11:12;;;;;;;13.97;8.77;;;6.20;99.90;;;;;;5060419;28;20254;-89
2022/12/23 00:16:22;;;;;;;17.17;8.90;;;6.10;99.90;;;;;;5077949;28;20220;-91
2022/12/23 00:18:48;;;;;;;13.87;8.00;;;6.20;99.90;;;;;;5077164;28;20205;-88
2022/12/23 00:21:16;;;;;;;15.93;9.27;;;6.10;99.90;;;;;;5059292;28;20532;-90
2022/12/23 00:23:46;;;;;;;14.00;8.57;;;6.10;99.90;;;;;;5059845;28;20178;-94
2022/12/23 00:26:18;;;;;;;13.10;8.10;;;6.10;99.90;;;;;;5060309;28;20591;-89
2022/12/23 00:28:44;;;;;;;14.60;8.57;;;6.10;99.90;;;;;;5077503;28;20197;-90
2022/12/23 00:31:10;;;;;;;15.10;8.30;;;6.20;99.90;;;;;;5059012;28;20204;-88
2022/12/23 00:33:40;;;;;;;13.57;8.60;;;6.20;99.90;;;;;;5058810;28;20572;-91
2022/12/23 00:36:26;;;;;;;14.10;8.40;;;6.20;99.90;;;;;;5059550;28;20186;-88
2022/12/23 00:44:23;;;;;;;13.93;8.20;;;6.10;99.90;;;;;;5077069;28;20548;-91
2022/12/23 00:46:49;;;;;;;13.73;8.23;;;6.20;99.90;;;;;;5077050;28;20170;-91
2022/12/23 00:52:04;;;;;;;14.13;7.93;;;6.20;99.90;;;;;;5078371;28;20176;-90
2022/12/23 00:54:30;;;;;;;12.87;8.47;;;6.10;99.90;;;;;;5060187;28;20208;-91
2022/12/23 00:56:57;;;;;;;13.10;7.87;;;6.20;99.90;;;;;;5059801;28;20185;-90
2022/12/23 00:59:22;;;;;;;14.60;8.63;;;6.20;99.90;;;;;;5059686;28;20188;-90
2022/12/23 01:07:20;;;;;;;18.50;8.53;;;6.20;99.90;;;;;;5077032;28;20196;-90
2022/12/23 01:09:45;;;;;;;16.17;9.20;;;6.30;99.90;;;;;;5058800;28;20188;-89
2022/12/23 01:12:12;;;;;;;17.03;9.37;;;6.20;99.90;;;;;;5058947;28;20182;-91
2022/12/23 01:14:38;;;;;;;17.53;9.00;;;6.20;99.90;;;;;;5075319;28;20604;-89
2022/12/23 01:17:06;;;;;;;17.10;9.43;;;6.20;99.90;;;;;;5058055;28;20596;-90
2022/12/23 01:19:32;;;;;;;15.03;8.90;;;6.20;99.90;;;;;;5058269;28;20188;-91
2022/12/23 01:21:58;;;;;;;16.10;8.87;;;6.20;99.90;;;;;;5058105;28;20213;-89
2022/12/23 01:24:28;;;;;;;16.47;9.67;;;6.20;99.90;;;;;;5058023;28;20173;-89
2022/12/23 01:26:54;;;;;;;18.03;9.30;;;6.20;99.90;;;;;;5058431;28;20181;-89
2022/12/23 01:29:19;;;;;;;13.37;8.40;;;6.20;99.90;;;;;;5058510;28;20185;-89
2022/12/23 01:31:45;;;;;;;16.57;8.53;;;6.20;99.90;;;;;;5058827;28;20499;-89
2022/12/23 01:34:12;;;;;;;17.30;8.57;;;6.20;99.90;;;;;;5058068;28;20202;-89
2022/12/23 01:36:37;;;;;;;14.63;8.23;;;6.20;99.90;;;;;;5058316;28;20228;-90
2022/12/23 01:39:03;;;;;;;14.70;8.00;;;6.30;99.90;;;;;;5057874;28;20233;-89
2022/12/23 01:44:48;;;;;;;14.23;8.27;;;6.30;99.90;;;;;;5075913;28;20255;-89
2022/12/23 01:47:28;;;;;;;16.00;8.10;;;6.30;99.90;;;;;;5057728;28;20503;-90
2022/12/23 01:50:05;;;;;;;15.67;8.47;;;6.30;99.90;;;;;;5058064;28;20169;-88
2022/12/23 01:52:38;;;;;;;15.03;7.80;;;6.30;99.90;;;;;;5057260;28;20172;-89
2022/12/23 01:55:04;;;;;;;13.40;7.50;;;6.30;99.90;;;;;;5057497;28;20671;-88
2022/12/23 01:57:30;;;;;;;13.53;8.10;;;6.30;99.90;;;;;;5057920;28;20177;-89
2022/12/23 02:05:27;;;;;;;17.70;7.53;;;6.30;99.90;;;;;;5076223;28;20168;-95
2022/12/23 02:11:24;;;;;;;14.43;7.70;;;6.40;99.90;;;;;;5075817;28;20299;-89
2022/12/23 02:17:24;;;;;;;14.53;7.43;;;6.40;99.90;;;;;;4974642;28;20212;-91
2022/12/23 02:20:03;;;;;;;14.60;7.47;;;6.40;99.90;;;;;;5051196;28;20274;-94
2022/12/23 02:22:48;;;;;;;19.60;8.07;;;6.40;99.90;;;;;;5057718;28;20184;-91
2022/12/23 02:25:31;;;;;;;14.17;7.67;;;6.50;99.90;;;;;;5075384;28;20157;-91
2022/12/23 02:28:35;;;;;;;13.90;7.97;;;6.50;99.90;;;;;;5075114;28;20172;-93
2022/12/23 02:31:13;;;;;;;14.63;8.63;;;6.50;99.90;;;;;;5007587;28;20184;-91
2022/12/23 02:34:10;;;;;;;16.83;8.00;;;6.50;99.90;;;;;;5056776;28;20176;-90
2022/12/23 02:37:18;;;;;;;15.43;8.13;;;6.60;99.90;;;;;;5057369;28;20196;-94
2022/12/23 02:39:53;;;;;;;17.13;8.87;;;6.60;99.90;;;;;;5019137;28;20200;-92
2022/12/23 02:42:36;;;;;;;16.83;7.97;;;6.60;99.90;;;;;;5056626;28;20643;-92
2022/12/23 02:45:08;;;;;;;15.70;8.37;;;6.70;99.90;;;;;;5056854;28;20181;-90
2022/12/23 02:47:39;;;;;;;16.17;7.43;;;6.70;99.90;;;;;;5057002;28;20170;-88
2022/12/23 02:50:09;;;;;;;18.33;8.20;;;6.80;99.90;;;;;;5057252;28;20189;-90
2022/12/23 02:52:37;;;;;;;15.93;7.97;;;6.80;99.90;;;;;;5057235;28;20173;-89
2022/12/23 02:55:21;;;;;;;20.90;8.70;;;6.80;99.90;;;;;;5056886;28;20189;-88
2022/12/23 02:57:48;;;;;;;14.70;7.03;;;6.90;99.90;;;;;;5514475;22;20567;-89
2022/12/23 03:00:15;;;;;;;12.53;7.67;;;6.80;99.90;;;;;;5034287;28;20573;-88
2022/12/23 03:02:42;;;;;;;17.60;7.50;;;6.90;99.90;;;;;;5033843;28;20181;-88
2022/12/23 03:05:39;;;;;;;18.40;6.93;;;7.00;99.90;;;;;;5034457;28;20677;-89
2022/12/23 03:08:10;;;;;;;10.10;6.23;;;7.10;99.90;;;;;;5034690;28;20177;-88
2022/12/23 03:11:07;;;;;;;11.80;6.20;;;7.10;99.90;;;;;;5034483;28;20174;-89
2022/12/23 03:14:05;;;;;;;11.50;6.10;;;7.20;99.90;;;;;;5034613;28;20296;-88
2022/12/23 03:16:34;;;;;;;18.13;5.77;;;7.30;99.90;;;;;;5034362;28;20177;-89
2022/12/23 03:19:11;;;;;;;16.20;6.53;;;7.30;99.90;;;;;;5035096;28;20166;-89
2022/12/23 03:21:41;;;;;;;12.03;6.17;;;7.40;99.90;;;;;;5034411;28;20239;-90
2022/12/23 03:24:55;;;;;;;10.13;6.07;;;7.40;99.90;;;;;;5034294;28;20210;-90
2022/12/23 03:27:29;;;;;;;9.47;6.47;;;7.40;99.90;;;;;;5013188;28;20213;-90
2022/12/23 03:30:16;;;;;;;13.47;7.13;;;7.50;99.90;;;;;;5034184;28;20173;-89
2022/12/23 03:33:05;;;;;;;8.37;5.97;;;7.50;99.90;;;;;;5034229;28;20177;-90
2022/12/23 03:35:38;;;;;;;8.10;5.93;;;7.50;99.90;;;;;;5034542;28;20166;-90
2022/12/23 03:38:06;;;;;;;8.80;6.00;;;7.50;99.90;;;;;;5035061;28;20518;-90
2022/12/23 03:40:37;;;;;;;8.97;5.70;;;7.60;99.90;;;;;;5037720;28;20403;-90
2022/12/23 03:43:35;;;;;;;9.03;6.50;;;7.60;99.90;;;;;;5037735;28;20629;-91
2022/12/23 03:46:11;;;;;;;11.73;6.53;;;7.60;99.90;;;;;;5019399;28;20182;-90
2022/12/23 03:48:42;;;;;;;11.33;6.40;;;7.60;99.90;;;;;;5038151;28;20279;-90
2022/12/23 03:51:14;;;;;;;7.93;5.90;;;7.60;99.90;;;;;;5038009;28;20576;-90
2022/12/23 03:53:50;;;;;;;9.93;6.40;;;7.60;99.90;;;;;;5037648;28;20673;-90
2022/12/23 03:56:29;;;;;;;9.90;7.37;;;7.60;99.90;;;;;;5038225;28;20177;-90
2022/12/23 03:58:59;;;;;;;11.57;7.40;;;7.70;99.90;;;;;;5037441;28;20675;-90
2022/12/23 04:01:51;;;;;;;13.53;7.03;;;7.70;99.90;;;;;;5037500;28;20224;-90
2022/12/23 04:04:26;;;;;;;9.47;6.33;;;7.70;99.90;;;;;;5037319;28;20674;-90
2022/12/23 04:07:16;;;;;;;11.80;7.23;;;7.70;99.90;;;;;;5037535;28;20568;-89
2022/12/23 04:09:42;;;;;;;11.70;7.13;;;7.70;99.90;;;;;;5037385;28;20202;-90
2022/12/23 04:12:08;;;;;;;13.17;7.20;;;7.70;99.90;;;;;;5037229;28;20182;-90
2022/12/23 04:14:35;;;;;;;12.90;7.77;;;7.70;99.90;;;;;;5036894;28;20324;-90
2022/12/23 04:17:01;;;;;;;9.47;7.13;;;7.70;99.90;;;;;;5044505;28;20653;-90
2022/12/23 04:19:27;;;;;;;10.97;7.60;;;7.70;99.90;;;;;;5057055;28;20165;-89
2022/12/23 04:21:56;;;;;;;14.43;8.10;;;7.70;99.90;;;;;;5056754;28;20192;-89
2022/12/23 04:24:22;;;;;;;12.87;8.13;;;7.70;99.90;;;;;;5057207;28;20274;-90
2022/12/23 04:26:48;;;;;;;12.77;7.80;;;7.70;99.90;;;;;;5056577;28;20189;-89
2022/12/23 04:29:14;;;;;;;12.20;7.87;;;7.70;99.90;;;;;;5056724;28;20165;-89
2022/12/23 04:31:39;;;;;;;15.53;8.07;;;7.70;99.90;;;;;;5056680;28;20203;-89
2022/12/23 04:34:05;;;;;;;16.30;8.60;;;7.80;99.90;;;;;;5056703;28;20309;-90
2022/12/23 04:36:32;;;;;;;14.40;8.43;;;7.80;99.90;;;;;;5056593;28;20232;-89
2022/12/23 04:38:57;;;;;;;15.10;8.47;;;7.80;99.90;;;;;;5056631;28;20684;-89
2022/12/23 04:41:23;;;;;;;12.30;8.00;;;7.80;99.90;;;;;;5056877;28;20732;-89
2022/12/23 04:43:49;;;;;;;13.47;7.97;;;7.80;99.90;;;;;;5056689;28;20193;-89
2022/12/23 04:46:15;;;;;;;15.30;8.83;;;7.80;99.90;;;;;;5056801;28;20585;-90
2022/12/23 04:48:40;;;;;;;15.97;8.57;;;7.90;99.90;;;;;;5057039;28;20287;-91
2022/12/23 04:51:06;;;;;;;14.50;8.20;;;7.90;99.90;;;;;;5057409;28;20647;-90
2022/12/23 04:53:35;;;;;;;13.97;8.53;;;7.90;99.90;;;;;;5056956;28;20197;-91
2022/12/23 04:56:01;;;;;;;17.10;8.90;;;8.10;99.90;;;;;;5075116;28;20216;-91
2022/12/23 04:58:26;;;;;;;15.60;8.60;;;8.10;99.90;;;;;;5057038;28;20225;-90
2022/12/23 05:01:03;;;;;;;16.38;8.90;;;8.10;99.90;;;;;;5056914;28;20204;-91
2022/12/23 05:03:30;;;;;;;18.70;8.83;;;8.00;99.90;;;;;;5056554;28;20561;-90
2022/12/23 05:05:56;;;;;;;16.23;9.43;;;8.00;99.90;;;;;;5057056;28;20173;-91
2022/12/23 05:08:22;;;;;;;17.20;8.90;;;8.00;99.90;;;;;;5056703;28;20173;-90
2022/12/23 05:10:48;;;;;;;12.83;8.47;;;8.00;99.90;;;;;;5057016;28;20177;-90
2022/12/23 05:13:14;;;;;;;14.98;8.15;;;8.00;99.90;;;;;;5056648;28;20572;-90
2022/12/23 05:15:43;;;;;;;14.50;9.00;;;7.90;99.90;;;;;;5056580;28;20169;-90
2022/12/23 05:18:10;;;;;;;13.60;8.23;;;7.90;99.90;;;;;;5056678;28;20659;-91
2022/12/23 05:20:36;;;;;;;13.55;8.60;;;7.80;99.90;;;;;;5056455;28;20201;-90
2022/12/23 05:23:03;;;;;;;18.23;9.67;;;7.80;99.90;;;;;;5056040;28;20260;-90
2022/12/23 05:25:28;;;;;;;14.30;8.77;;;7.90;99.90;;;;;;5056449;28;20177;-90
2022/12/23 05:27:54;;;;;;;13.80;8.83;;;7.90;99.90;;;;;;5056310;28;20167;-90
2022/12/23 05:30:20;;;;;;;14.77;8.03;;;8.00;99.90;;;;;;5056001;28;20171;-90
2022/12/23 05:32:46;;;;;;;14.03;8.00;;;8.00;99.90;;;;;;5056015;28;20169;-90
2022/12/23 05:35:11;;;;;;;15.77;8.10;;;7.90;99.90;;;;;;5055712;28;20702;-90
2022/12/23 05:37:37;;;;;;;14.93;8.00;;;7.90;99.90;;;;;;5056147;28;20165;-90
2022/12/23 05:40:03;;;;;;;14.60;7.80;;;7.90;99.90;;;;;;5056117;28;20617;-90
2022/12/23 05:42:29;;;;;;;16.30;8.33;;;8.00;99.90;;;;;;5055577;28;20193;-90
2022/12/23 05:44:55;;;;;;;12.30;7.27;;;8.00;99.90;;;;;;5055836;28;20552;-90
2022/12/23 05:47:20;;;;;;;14.13;7.63;;;7.90;99.90;;;;;;5055923;28;20189;-90
2022/12/23 05:49:46;;;;;;;13.67;7.73;;;8.00;99.90;;;;;;5056223;28;20162;-90
2022/12/23 05:52:12;;;;;;;11.97;7.27;;;7.90;99.90;;;;;;5056243;28;20264;-90
2022/12/23 05:54:38;;;;;;;12.57;7.70;;;7.80;99.90;;;;;;5056052;28;20203;-91
2022/12/23 05:57:03;;;;;;;12.40;7.20;;;7.90;99.90;;;;;;5056080;28;20172;-89
2022/12/23 05:59:29;;;;;;;11.40;7.37;;;7.90;99.90;;;;;;5052153;28;20234;-90
2022/12/23 06:01:55;;;;;;;11.80;7.40;;;7.90;99.90;;;;;;5054124;28;20676;-90
2022/12/23 06:04:21;;;;;;;13.27;7.83;;;7.80;99.90;;;;;;5075376;28;20193;-89
2022/12/23 06:06:47;;;;;;;13.03;7.60;;;7.90;99.90;;;;;;5075467;28;20187;-89
2022/12/23 06:09:12;;;;;;;12.87;7.83;;;7.80;99.90;;;;;;5075549;28;20179;-89
2022/12/23 06:11:38;;;;;;;12.20;7.00;;;7.80;99.90;;;;;;5075707;28;20203;-91
2022/12/23 06:14:06;;;;;;;12.37;7.07;;;7.70;99.90;;;;;;5075265;28;20196;-90
2022/12/23 06:16:32;;;;;;;15.00;7.93;;;7.70;99.90;;;;;;5075393;28;20189;-89
2022/12/23 06:18:58;;;;;;;11.37;6.67;;;7.70;99.90;;;;;;5074901;28;20175;-90
2022/12/23 06:21:27;;;;;;;11.83;6.87;;;7.70;99.90;;;;;;5075296;28;20192;-90
2022/12/23 06:23:52;;;;;;;11.97;7.27;;;7.70;99.90;;;;;;5074928;28;20196;-91
2022/12/23 06:26:19;;;;;;;12.40;6.90;;;7.60;99.90;;;;;;5093453;28;20259;-90
2022/12/23 06:28:45;;;;;;;13.47;7.23;;;7.60;99.90;;;;;;5075306;28;20167;-90
2022/12/23 06:31:10;;;;;;;12.27;7.17;;;7.50;99.90;;;;;;5075134;28;20164;-89
2022/12/23 06:33:36;;;;;;;14.50;6.60;;;7.50;99.90;;;;;;5074990;28;20196;-91
2022/12/23 06:36:02;;;;;;;14.87;6.30;;;7.50;99.90;;;;;;5075356;28;20169;-91
2022/12/23 06:38:29;;;;;;;13.87;6.80;;;7.40;99.90;;;;;;5075171;28;20165;-89
2022/12/23 06:40:55;;;;;;;10.87;5.60;;;7.40;99.90;;;;;;5092570;28;20196;-90
2022/12/23 06:43:21;;;;;;;10.43;5.77;;;7.40;99.90;;;;;;5075352;28;20219;-90
2022/12/23 06:45:48;;;;;;;12.07;7.00;;;7.40;99.90;;;;;;5075097;28;20230;-90
2022/12/23 06:48:15;;;;;;;14.67;6.93;;;7.40;99.90;;;;;;5075094;28;20667;-90
2022/12/23 06:50:41;;;;;;;11.57;6.07;;;7.30;99.90;;;;;;5074853;28;20255;-89
2022/12/23 06:53:07;;;;;;;12.43;5.83;;;7.40;99.90;;;;;;5085343;28;20734;-89
2022/12/23 06:55:32;;;;;;;10.33;5.10;;;7.40;99.90;;;;;;5075291;28;20164;-90
2022/12/23 06:57:58;;;;;;;8.40;4.70;;;7.30;99.90;;;;;;5074677;28;20165;-90
2022/12/23 07:00:24;;;;;;;7.97;4.43;;;7.30;99.90;;;;;;5074754;28;20574;-89
2022/12/23 07:02:52;;;;;;;7.03;3.90;;;7.30;99.90;;;;;;5074956;28;20218;-89
2022/12/23 07:05:18;;;;;;;7.67;4.20;;;7.20;99.90;;;;;;5091421;28;20192;-89
2022/12/23 07:07:44;;;;;;;7.83;4.47;;;7.30;99.90;;;;;;5092968;28;20164;-89
2022/12/23 07:10:10;;;;;;;7.17;4.10;;;7.20;99.90;;;;;;5075021;28;20172;-90
2022/12/23 07:12:36;;;;;;;8.77;4.30;;;7.20;99.90;;;;;;5076051;28;20172;-90
2022/12/23 07:15:02;;;;;;;8.03;4.30;;;7.20;99.90;;;;;;5078858;28;20287;-90
2022/12/23 07:17:27;;;;;;;9.83;4.57;;;7.20;99.90;;;;;;5078446;28;20524;-88
2022/12/23 07:19:53;;;;;;;7.47;4.60;;;7.20;99.90;;;;;;5078988;28;20168;-89
2022/12/23 07:22:19;;;;;;;10.53;5.70;;;7.10;99.90;;;;;;5078810;28;20193;-90
2022/12/23 07:24:45;;;;;;;9.03;5.30;;;7.10;99.90;;;;;;5073155;28;20242;-89
2022/12/23 07:27:10;;;;;;;10.43;6.37;;;7.00;99.90;;;;;;5058506;28;20220;-90
2022/12/23 07:29:36;;;;;;;9.53;6.20;;;7.00;99.90;;;;;;5059665;28;20170;-90
2022/12/23 07:32:02;;;;;;;11.33;6.33;;;7.00;99.90;;;;;;5094970;28;20184;-90
2022/12/23 07:34:28;;;;;;;9.57;6.20;;;7.00;99.90;;;;;;5078473;28;20593;-90
2022/12/23 07:36:54;;;;;;;10.17;6.27;;;7.00;99.90;;;;;;5078323;28;20187;-90
2022/12/23 07:39:20;;;;;;;9.27;5.87;;;7.00;99.90;;;;;;5078519;28;20263;-89
2022/12/23 07:41:46;;;;;;;9.73;5.93;;;7.00;99.90;;;;;;5079777;28;20232;-90
2022/12/23 07:44:12;;;;;;;8.87;5.60;;;6.90;99.90;;;;;;5078156;28;20196;-89
2022/12/23 07:46:38;;;;;;;7.83;5.50;;;6.90;99.90;;;;;;5078266;28;20215;-89
2022/12/23 07:49:04;;;;;;;9.07;5.47;;;6.90;99.90;;;;;;5078262;28;20204;-88
2022/12/23 07:51:30;;;;;;;7.70;4.93;;;6.90;99.90;;;;;;5096350;28;20164;-90
2022/12/23 07:53:56;;;;;;;7.13;5.00;;;6.90;99.90;;;;;;5095925;28;20193;-91
2022/12/23 07:56:23;;;;;;;8.93;5.80;;;6.90;99.90;;;;;;5077807;28;20273;-91
2022/12/23 07:58:52;;;;;;;8.10;5.57;;;6.90;99.90;;;;;;5077755;28;20692;-91
2022/12/23 08:01:19;;;;;;;10.10;5.47;;;6.90;99.90;;;;;;5077511;28;20226;-91
2022/12/23 08:03:45;;;;;;;8.77;5.43;;;6.90;99.90;;;;;;5077738;28;20231;-91
2022/12/23 08:06:13;;;;;;;7.90;5.27;;;6.90;99.90;;;;;;5077798;28;20261;-91
2022/12/23 08:08:40;;;;;;;9.47;5.77;;;6.90;99.90;;;;;;5077671;28;20213;-91
2022/12/23 08:11:08;;;;;;;8.80;5.50;;;6.90;99.90;;;;;;5077597;28;20199;-92
2022/12/23 08:13:37;;;;;;;9.70;5.60;;;6.90;99.90;;;;;;5095381;28;20204;-91
2022/12/23 08:16:04;;;;;;;9.83;5.87;;;6.90;99.90;;;;;;5077956;28;20187;-91
2022/12/23 08:18:31;;;;;;;9.43;5.83;;;6.80;99.90;;;;;;5077278;28;20182;-91
2022/12/23 08:21:06;;;;;;;11.20;5.77;;;6.90;99.90;;;;;;5077191;28;20605;-92
2022/12/23 08:23:33;;;;;;;13.17;6.43;;;6.80;99.90;;;;;;5077353;28;20208;-90
2022/12/23 08:26:08;;;;;;;11.50;6.90;;;6.90;99.90;;;;;;5077074;28;20282;-90
2022/12/23 08:28:35;;;;;;;10.70;6.50;;;6.80;99.90;;;;;;5077749;28;20266;-90
2022/12/23 08:31:16;;;;;;;14.13;7.03;;;6.80;99.90;;;;;;5095892;28;20164;-91
2022/12/23 08:33:43;;;;;;;10.63;6.33;;;6.80;99.90;;;;;;5077413;28;20192;-90
2022/12/23 08:36:13;;;;;;;12.57;6.93;;;6.80;99.90;;;;;;5077570;28;20606;-92
2022/12/23 08:38:38;;;;;;;12.43;6.40;;;6.80;99.90;;;;;;5077562;28;20204;-91
2022/12/23 08:41:09;;;;;;;12.30;6.67;;;6.90;99.90;;;;;;5093923;28;20224;-92
2022/12/23 08:43:35;;;;;;;11.87;7.17;;;6.90;99.90;;;;;;5077139;28;20205;-90
2022/12/23 08:46:01;;;;;;;12.87;7.00;;;6.90;99.90;;;;;;5095223;28;20161;-91
2022/12/23 08:48:27;;;;;;;11.90;6.13;;;6.90;99.90;;;;;;5095081;28;20159;-92
2022/12/23 08:50:53;;;;;;;11.07;6.93;;;6.90;99.90;;;;;;5076796;28;20169;-92
2022/12/23 08:53:18;;;;;;;14.40;7.80;;;6.90;99.90;;;;;;5093551;28;20609;-91
2022/12/23 08:55:46;;;;;;;16.27;8.90;;;7.00;99.90;;;;;;5077036;28;20207;-90
2022/12/23 08:58:14;;;;;;;17.03;9.07;;;7.00;99.90;;;;;;5076614;28;20224;-90
2022/12/23 09:00:40;;;;;;;20.07;9.73;;;7.10;99.90;;;;;;5076972;28;20204;-93
2022/12/23 09:03:07;;;;;;;19.43;9.90;;;7.10;99.90;;;;;;5076813;28;20187;-91
2022/12/23 09:05:39;;;;;;;20.63;10.90;;;7.10;99.90;;;;;;5076836;28;20192;-90
2022/12/23 09:08:04;;;;;;;19.80;10.23;;;7.20;99.90;;;;;;5076461;28;20531;-92
2022/12/23 09:10:31;;;;;;;23.97;10.83;;;7.10;99.90;;;;;;5076858;28;20172;-91
2022/12/23 09:12:57;;;;;;;23.33;11.47;;;7.10;99.90;;;;;;5076541;28;20171;-91
2022/12/23 09:15:23;;;;;;;20.93;10.53;;;7.10;99.90;;;;;;5076678;28;20255;-90
2022/12/23 09:17:49;;;;;;;21.67;10.57;;;7.20;99.90;;;;;;5076562;28;20173;-91
2022/12/23 09:20:14;;;;;;;21.73;10.63;;;7.20;99.90;;;;;;5076243;28;20169;-90
2022/12/23 09:22:41;;;;;;;25.00;11.30;;;7.20;99.90;;;;;;5076058;28;20277;-91
2022/12/23 09:25:07;;;;;;;23.57;11.47;;;7.20;99.90;;;;;;5076839;28;20246;-92
2022/12/23 09:27:33;;;;;;;23.47;10.47;;;7.20;99.90;;;;;;5076075;28;20523;-91
2022/12/23 09:30:00;;;;;;;20.83;10.97;;;7.20;99.90;;;;;;5075944;28;20184;-91
2022/12/23 09:32:26;;;;;;;24.20;12.27;;;7.20;99.90;;;;;;5076122;28;20177;-93
2022/12/23 09:34:52;;;;;;;23.30;11.70;;;7.20;99.90;;;;;;5076072;28;20262;-92
2022/12/23 09:37:19;;;;;;;28.00;12.43;;;7.20;99.90;;;;;;5075002;28;20180;-91
2022/12/23 09:39:44;;;;;;;25.83;12.53;;;7.20;99.90;;;;;;5076118;28;20180;-92
2022/12/23 09:42:38;;;;;;;25.27;11.33;;;7.20;99.90;;;;;;5075394;28;20288;-91
2022/12/23 09:45:40;;;;;;;21.87;10.93;;;7.10;99.90;;;;;;5093592;28;20192;-92
2022/12/23 09:48:12;;;;;;;23.47;11.73;;;7.10;99.90;;;;;;5075421;28;20270;-91
2022/12/23 09:50:40;;;;;;;24.37;12.73;;;7.20;99.90;;;;;;5075706;28;20538;-92
2022/12/23 09:53:11;;;;;;;25.10;12.03;;;7.20;99.90;;;;;;5075521;28;20184;-91
2022/12/23 09:55:46;;;;;;;25.67;12.23;;;7.10;99.90;;;;;;5075310;28;20189;-90
2022/12/23 09:58:36;;;;;;;30.40;12.80;;;7.20;99.90;;;;;;5110527;27;20544;-91
2022/12/23 10:01:31;;;;;;;34.07;14.03;;;7.20;99.90;;;;;;5109318;28;20172;-91
2022/12/23 10:04:19;;;;;;;31.53;13.33;;;7.20;99.90;;;;;;5108754;28;20241;-90
2022/12/23 10:06:49;;;;;;;35.17;14.30;;;7.30;99.90;;;;;;5109379;28;20176;-89
2022/12/23 10:09:17;;;;;;;35.43;14.80;;;7.30;99.90;;;;;;5109100;28;20574;-91
2022/12/23 10:11:45;;;;;;;30.87;13.70;;;7.40;99.90;;;;;;5109124;28;20180;-90
2022/12/23 10:14:21;;;;;;;31.80;13.93;;;7.30;99.90;;;;;;5109097;28;20202;-91
2022/12/23 10:17:13;;;;;;;26.17;12.40;;;7.40;99.90;;;;;;5106042;28;20267;-90
2022/12/23 10:19:43;;;;;;;31.00;13.70;;;7.40;99.90;;;;;;5089077;28;20169;-91
2022/12/23 10:22:36;;;;;;;27.77;13.03;;;7.40;99.90;;;;;;5088781;28;20199;-90
2022/12/23 10:25:17;;;;;;;30.40;12.20;;;7.30;99.90;;;;;;5088362;28;20295;-92
2022/12/23 10:27:43;;;;;;;26.67;12.53;;;7.30;99.90;;;;;;5088683;28;20263;-92
2022/12/23 10:30:14;;;;;;;28.13;13.27;;;7.30;99.90;;;;;;5088657;28;20227;-91
2022/12/23 10:33:13;;;;;;;27.20;12.90;;;7.30;99.90;;;;;;5088369;28;20177;-90
2022/12/23 10:36:09;;;;;;;25.83;12.03;;;7.20;99.90;;;;;;5088296;28;20173;-92
2022/12/23 10:39:08;;;;;;;28.03;12.97;;;7.20;99.90;;;;;;5088161;28;20187;-92
2022/12/23 10:42:06;;;;;;;28.07;14.03;;;7.20;99.90;;;;;;5088295;28;20165;-91
2022/12/23 10:44:56;;;;;;;28.73;13.63;;;7.20;99.90;;;;;;5077095;28;20227;-91
2022/12/23 10:47:50;;;;;;;27.17;14.13;;;7.20;99.90;;;;;;5088186;28;20266;-91
2022/12/23 10:50:24;;;;;;;29.47;14.67;;;7.20;99.90;;;;;;5088177;28;20636;-92
2022/12/23 10:52:53;;;;;;;30.13;14.87;;;7.30;99.90;;;;;;5088361;28;20647;-91
2022/12/23 10:55:27;;;;;;;22.83;13.10;;;7.30;99.90;;;;;;5087949;28;20560;-91
2022/12/23 10:58:02;;;;;;;27.20;13.93;;;7.40;99.90;;;;;;5087629;28;20234;-91
2022/12/23 11:00:28;;;;;;;28.23;14.00;;;7.40;99.90;;;;;;5087938;28;20172;-92
2022/12/23 11:03:07;;;;;;;29.30;14.93;;;7.40;99.90;;;;;;5087742;28;20184;-92
2022/12/23 11:05:34;;;;;;;29.47;14.50;;;7.50;99.90;;;;;;5087795;28;20165;-91
2022/12/23 11:08:01;;;;;;;26.97;14.40;;;7.50;99.90;;;;;;5083723;28;20174;-92
2022/12/23 11:10:31;;;;;;;30.37;14.33;;;7.60;99.90;;;;;;5074334;28;20173;-92
2022/12/23 11:12:58;;;;;;;28.20;14.57;;;7.60;99.90;;;;;;5073951;28;20184;-91
2022/12/23 11:15:31;;;;;;;35.30;16.20;;;7.70;99.90;;;;;;5073838;28;20177;-90
2022/12/23 11:18:17;;;;;;;30.27;14.53;;;7.70;99.90;;;;;;5086685;28;20207;-89
2022/12/23 11:20:59;;;;;;;30.13;15.07;;;7.70;99.90;;;;;;5094322;28;20478;-92
2022/12/23 11:23:28;;;;;;;30.40;14.80;;;7.70;99.90;;;;;;5093779;28;20605;-91
2022/12/23 11:26:06;;;;;;;29.73;15.17;;;7.80;99.90;;;;;;5094123;28;20705;-91
2022/12/23 11:28:36;;;;;;;31.73;14.70;;;7.80;99.90;;;;;;5095305;28;20184;-90
2022/12/23 11:31:10;;;;;;;25.50;12.33;;;7.90;99.90;;;;;;5093665;28;20169;-91
2022/12/23 11:33:54;;;;;;;22.83;12.03;;;7.90;99.90;;;;;;5093701;28;20199;-91
2022/12/23 11:36:26;;;;;;;24.40;13.03;;;7.90;99.90;;;;;;5093536;28;20192;-91
2022/12/23 11:39:28;;;;;;;25.25;13.38;;;7.90;99.90;;;;;;5094033;28;20586;-92
2022/12/23 11:42:14;;;;;;;24.27;13.00;;;7.80;99.90;;;;;;5082393;28;20187;-90
2022/12/23 11:44:49;;;;;;;24.23;13.40;;;7.80;99.90;;;;;;5093446;28;20203;-90
2022/12/23 11:47:21;;;;;;;22.70;12.20;;;7.70;99.90;;;;;;5093700;28;20648;-92
2022/12/23 11:49:50;;;;;;;26.87;14.13;;;7.70;99.90;;;;;;5093982;28;20196;-91
2022/12/23 11:52:22;;;;;;;25.90;13.03;;;7.70;99.90;;;;;;5093734;28;20169;-91
2022/12/23 11:55:00;;;;;;;28.92;13.48;;;7.70;99.90;;;;;;5093304;28;20201;-91
2022/12/23 11:57:43;;;;;;;28.90;13.57;;;7.60;99.90;;;;;;5094214;28;20224;-90
2022/12/23 12:00:20;;;;;;;28.53;13.50;;;7.60;99.90;;;;;;5093574;28;20176;-91
2022/12/23 12:02:51;;;;;;;26.00;13.60;;;7.60;99.90;;;;;;5092954;28;20184;-91
2022/12/23 12:05:28;;;;;;;24.00;11.93;;;7.60;99.90;;;;;;5093665;28;20687;-92
2022/12/23 12:08:12;;;;;;;24.37;12.07;;;7.50;99.90;;;;;;5093367;28;20636;-92
2022/12/23 12:10:39;;;;;;;26.43;11.93;;;7.50;99.90;;;;;;5094778;28;20206;-90
2022/12/23 12:13:19;;;;;;;26.53;12.70;;;7.60;99.90;;;;;;5093663;28;20266;-91
2022/12/23 12:16:15;;;;;;;22.33;11.90;;;7.60;99.90;;;;;;5094013;28;20179;-92
2022/12/23 12:18:43;;;;;;;25.00;12.17;;;7.60;99.90;;;;;;5093029;28;20187;-90
2022/12/23 12:21:28;;;;;;;24.53;13.00;;;7.70;99.90;;;;;;5092184;28;20177;-91
2022/12/23 12:24:05;;;;;;;24.63;13.30;;;7.70;99.90;;;;;;5093182;28;20196;-91
2022/12/23 12:26:35;;;;;;;24.55;13.90;;;7.70;99.90;;;;;;5093011;28;20168;-91
2022/12/23 12:29:16;;;;;;;27.70;12.93;;;7.70;99.90;;;;;;5093071;28;20361;-91
2022/12/23 12:31:55;;;;;;;25.00;12.83;;;7.80;99.90;;;;;;5092864;28;20635;-91
2022/12/23 12:34:39;;;;;;;22.13;11.80;;;7.80;99.90;;;;;;5093687;28;20200;-91
2022/12/23 12:37:27;;;;;;;25.00;12.73;;;7.80;99.90;;;;;;5092793;28;20200;-90
2022/12/23 12:40:00;;;;;;;21.83;12.23;;;7.70;99.90;;;;;;5092891;28;20614;-90
2022/12/23 12:42:53;;;;;;;24.57;11.30;;;7.70;99.90;;;;;;5093075;28;20165;-89
2022/12/23 12:45:40;;;;;;;22.00;11.57;;;7.70;99.90;;;;;;5092543;28;20192;-90
2022/12/23 12:48:37;;;;;;;23.33;11.60;;;7.70;99.90;;;;;;5092873;28;20559;-90
2022/12/23 12:51:30;;;;;;;18.83;10.97;;;7.70;99.90;;;;;;5092622;28;20179;-91
2022/12/23 12:54:05;;;;;;;20.17;10.90;;;7.80;99.90;;;;;;5092631;28;20292;-91
2022/12/23 12:56:52;;;;;;;21.77;10.63;;;7.80;99.90;;;;;;5092246;28;20224;-92
2022/12/23 12:59:26;;;;;;;23.83;11.07;;;7.90;99.90;;;;;;5092299;28;20173;-91
2022/12/23 13:01:58;;;;;;;20.23;10.03;;;7.90;99.90;;;;;;5092092;28;20275;-90
2022/12/23 13:04:30;;;;;;;19.58;10.73;;;7.90;99.90;;;;;;5092044;28;20208;-91
2022/12/23 13:07:03;;;;;;;19.65;11.07;;;7.90;99.90;;;;;;5092122;28;20263;-92
2022/12/23 13:09:51;;;;;;;19.20;10.37;;;7.90;99.90;;;;;;5092276;28;20169;-91
2022/12/23 13:12:34;;;;;;;19.77;10.20;;;7.90;99.90;;;;;;5091834;28;20173;-93
2022/12/23 13:15:15;;;;;;;23.77;13.37;;;7.80;99.90;;;;;;5092117;28;20196;-91
2022/12/23 13:18:02;;;;;;;21.33;12.43;;;7.80;99.90;;;;;;5091415;28;20200;-90
2022/12/23 13:20:38;;;;;;;18.77;12.50;;;7.70;99.90;;;;;;5092012;28;20639;-91
2022/12/23 13:23:51;;;;;;;17.90;10.52;;;7.70;99.90;;;;;;5092017;28;20172;-91
2022/12/23 13:26:29;;;;;;;13.77;8.43;;;7.70;99.90;;;;;;5089657;28;20280;-91
2022/12/23 13:29:19;;;;;;;14.43;8.47;;;7.70;99.90;;;;;;5091908;28;20259;-91
2022/12/23 13:31:57;;;;;;;13.07;8.63;;;7.60;99.90;;;;;;5091298;28;20168;-92
2022/12/23 13:34:44;;;;;;;14.13;8.80;;;7.70;99.90;;;;;;5091414;28;20223;-92
2022/12/23 13:37:27;;;;;;;12.67;8.50;;;7.60;99.90;;;;;;5091898;28;20199;-90
2022/12/23 13:40:27;;;;;;;13.50;8.30;;;7.70;99.90;;;;;;5092060;28;20180;-90
2022/12/23 13:42:58;;;;;;;15.77;9.33;;;7.70;99.90;;;;;;5091340;28;20603;-91
2022/12/23 13:45:31;;;;;;;15.73;9.10;;;7.70;99.90;;;;;;5092728;28;20157;-91